^^
Datos históricos de la estación: Murcia-Puente Tocinos
Diario Informe para Mayo 17, 2021 Unidades:  Ambas    Ingés   Métrico
Diario Semanal Mensual Anual
  Máxima: Mínima: Promedio:
Temperatura: 81.7 °F /  27.6 °C 64.9 °F /  18.3 °C 74.3 °F /  23.5 °C
Punto de rocio: 60.8 °F /  16 °C 48.6 °F /  9.2 °C 56.3 °F /  13.5 °C
Humedad: 81% 35% 55%
Velocidad viento: 14.7mph /  23.7km/h - 7.4mph /  11.9km/h
Racha viento: 30mph /  48.3km/h - -
Viento- - SE
Presión: 30.1 in /  1019.4 hPa 29.9 in /  1010.8 hPa -
Precipitación: 0 in /  0.0 mm    
 
 
Tabla de datos para Mayo 17, 2021
Hora Temperatura Punto de rocio Presión Viento Velocidad viento Racha viento Humedad Intensidad lluvia(por hora) Nubes
00:04 78.4 °F /  25.8 °C 48.6 °F /  9.2 °C 29.9in /  1010.8hPa SSO 4.7mph /  7.6km/h 8.5mph /  13.7km/h 35% 0in /  0.0mm
00:09 78.4 °F /  25.8 °C 48.6 °F /  9.2 °C 29.9in /  1010.8hPa Sur 5mph /  8km/h 9mph /  14.5km/h 35.2% 0in /  0.0mm
00:14 78.3 °F /  25.7 °C 49.1 °F /  9.5 °C 29.9in /  1010.8hPa Sur 5.2mph /  8.4km/h 8.1mph /  13km/h 36% 0in /  0.0mm
00:19 78.1 °F /  25.6 °C 48.9 °F /  9.4 °C 29.9in /  1010.8hPa SSO 5.2mph /  8.4km/h 6.9mph /  11.1km/h 36% 0in /  0.0mm
00:24 78.1 °F /  25.6 °C 48.9 °F /  9.4 °C 29.9in /  1010.8hPa SO 5.2mph /  8.4km/h 7.4mph /  11.9km/h 36% 0in /  0.0mm
00:29 77.9 °F /  25.5 °C 49.1 °F /  9.5 °C 29.9in /  1010.9hPa SSO 4.6mph /  7.4km/h 7mph /  11.3km/h 36.6% 0in /  0.0mm
00:34 77.7 °F /  25.4 °C 49.5 °F /  9.7 °C 29.9in /  1010.9hPa SO 4mph /  6.5km/h 7mph /  11.3km/h 37% 0in /  0.0mm
00:39 77.7 °F /  25.4 °C 49.5 °F /  9.7 °C 29.9in /  1010.9hPa SO 3.8mph /  6.1km/h 6mph /  9.7km/h 37% 0in /  0.0mm
00:44 77.5 °F /  25.3 °C 49.3 °F /  9.6 °C 29.9in /  1010.9hPa SO 3.6mph /  5.8km/h 5.8mph /  9.3km/h 37% 0in /  0.0mm
00:49 77.5 °F /  25.3 °C 49.1 °F /  9.5 °C 29.9in /  1010.9hPa Sur 3.4mph /  5.4km/h 6mph /  9.7km/h 37% 0in /  0.0mm
00:54 77.2 °F /  25.1 °C 49.6 °F /  9.8 °C 29.9in /  1010.9hPa ESE 3.1mph /  5km/h 6.9mph /  11.1km/h 38.2% 0in /  0.0mm
00:59 76.3 °F /  24.6 °C 49.8 °F /  9.9 °C 29.9in /  1011.0hPa SE 3.6mph /  5.8km/h 7mph /  11.3km/h 39.4% 0in /  0.0mm
01:04 75.7 °F /  24.3 °C 49.8 °F /  9.9 °C 29.9in /  1011.0hPa SSE 4mph /  6.5km/h 7mph /  11.3km/h 40% 0in /  0.0mm
01:09 75.7 °F /  24.3 °C 49.6 °F /  9.8 °C 29.9in /  1011.0hPa Sur 4mph /  6.5km/h 6mph /  9.7km/h 40% 0in /  0.0mm
01:14 75.7 °F /  24.3 °C 49.6 °F /  9.8 °C 29.9in /  1011.0hPa SSO 4mph /  6.5km/h 6.9mph /  11.1km/h 39.8% 0in /  0.0mm
01:19 75.9 °F /  24.4 °C 49.3 °F /  9.6 °C 29.9in /  1011.0hPa SSO 4mph /  6.5km/h 7mph /  11.3km/h 39.1% 0in /  0.0mm
01:24 76.3 °F /  24.6 °C 49.5 °F /  9.7 °C 29.9in /  1011.0hPa SO 4mph /  6.5km/h 6mph /  9.7km/h 39% 0in /  0.0mm
01:29 76.3 °F /  24.6 °C 49.5 °F /  9.7 °C 29.9in /  1011.1hPa Sur 3.9mph /  6.2km/h 6mph /  9.7km/h 39% 0in /  0.0mm
01:30 76.3 °F /  24.6 °C 49.5 °F /  9.7 °C 29.9in /  1011.1hPa Sur 3.5mph /  5.7km/h 6mph /  9.7km/h 39% 0in /  0.0mm
01:39 76.3 °F /  24.6 °C 49.8 °F /  9.9 °C 29.9in /  1011.1hPa SSE 3.8mph /  6.1km/h 6mph /  9.7km/h 39.6% 0in /  0.0mm
01:44 75.9 °F /  24.4 °C 50 °F /  10 °C 29.9in /  1011.1hPa SE 4mph /  6.5km/h 7.4mph /  11.9km/h 40% 0in /  0.0mm
01:49 75.7 °F /  24.3 °C 49.6 °F /  9.8 °C 29.9in /  1011.1hPa SE 4.6mph /  7.4km/h 8.1mph /  13km/h 40% 0in /  0.0mm
01:54 75.7 °F /  24.3 °C 49.3 °F /  9.6 °C 29.9in /  1011.1hPa SE 5.2mph /  8.4km/h 8mph /  12.9km/h 39.3% 0in /  0.0mm
01:59 76.3 °F /  24.6 °C 49.3 °F /  9.6 °C 29.9in /  1011.1hPa SE 5.3mph /  8.5km/h 8.1mph /  13km/h 38.8% 0in /  0.0mm
02:04 76.6 °F /  24.8 °C 49.1 °F /  9.5 °C 29.9in /  1011.1hPa SSE 5.4mph /  8.7km/h 8.1mph /  13km/h 38% 0in /  0.0mm
02:09 77.2 °F /  25.1 °C 49.5 °F /  9.7 °C 29.9in /  1011.1hPa SSE 4.7mph /  7.6km/h 7mph /  11.3km/h 38% 0in /  0.0mm
02:14 77.4 °F /  25.2 °C 49.5 °F /  9.7 °C 29.9in /  1011.2hPa Sur 4mph /  6.5km/h 6.9mph /  11.1km/h 37.5% 0in /  0.0mm
02:19 77.7 °F /  25.4 °C 49.3 °F /  9.6 °C 29.9in /  1011.2hPa SSE 3.8mph /  6.1km/h 7mph /  11.3km/h 37% 0in /  0.0mm
02:24 77.9 °F /  25.5 °C 49.5 °F /  9.7 °C 29.9in /  1011.2hPa SO 3.6mph /  5.8km/h 5mph /  8km/h 37% 0in /  0.0mm
02:29 78.1 °F /  25.6 °C 49.6 °F /  9.8 °C 29.9in /  1011.2hPa Sur 3.3mph /  5.3km/h 5.2mph /  8.4km/h 37% 0in /  0.0mm
02:34 77.7 °F /  25.4 °C 49.5 °F /  9.7 °C 29.9in /  1011.1hPa Sur 2.9mph /  4.7km/h 6.2mph /  10km/h 37% 0in /  0.0mm
02:39 77.4 °F /  25.2 °C 49.1 °F /  9.5 °C 29.9in /  1011.1hPa Sur 3.7mph /  6km/h 6.9mph /  11.1km/h 37.1% 0in /  0.0mm
02:44 77.4 °F /  25.2 °C 49.5 °F /  9.7 °C 29.9in /  1011.2hPa SSO 4.7mph /  7.6km/h 8.1mph /  13km/h 37.5% 0in /  0.0mm
02:49 78.1 °F /  25.6 °C 49.6 °F /  9.8 °C 29.9in /  1011.2hPa SSO 4.7mph /  7.6km/h 8.1mph /  13km/h 37% 0in /  0.0mm
02:54 78.8 °F /  26 °C 49.8 °F /  9.9 °C 29.9in /  1011.2hPa SSO 4.7mph /  7.6km/h 8.1mph /  13km/h 36.3% 0in /  0.0mm
02:59 79.3 °F /  26.3 °C 50.2 °F /  10.1 °C 29.9in /  1011.2hPa SSO 5mph /  8km/h 8.5mph /  13.7km/h 36% 0in /  0.0mm
03:04 79.5 °F /  26.4 °C 50.2 °F /  10.1 °C 29.9in /  1011.2hPa OSO 5.2mph /  8.4km/h 9mph /  14.5km/h 36% 0in /  0.0mm
03:09 79.5 °F /  26.4 °C 50.2 °F /  10.1 °C 29.9in /  1011.2hPa Oeste 4.6mph /  7.4km/h 7.4mph /  11.9km/h 36% 0in /  0.0mm
03:14 79.5 °F /  26.4 °C 50.2 °F /  10.1 °C 29.9in /  1011.2hPa SO 4mph /  6.5km/h 7mph /  11.3km/h 35.8% 0in /  0.0mm
03:19 79.3 °F /  26.3 °C 50.2 °F /  10.1 °C 29.9in /  1011.2hPa OSO 3.5mph /  5.7km/h 6.9mph /  11.1km/h 36% 0in /  0.0mm
03:24 79 °F /  26.1 °C 50 °F /  10 °C 29.9in /  1011.2hPa Oeste 3.1mph /  5km/h 7mph /  11.3km/h 36.5% 0in /  0.0mm
03:29 78.4 °F /  25.8 °C 50 °F /  10 °C 29.9in /  1011.2hPa Oeste 3.7mph /  6km/h 7mph /  11.3km/h 37% 0in /  0.0mm
03:34 78.3 °F /  25.7 °C 50 °F /  10 °C 29.9in /  1011.2hPa Oeste 4.3mph /  6.9km/h 5.9mph /  9.5km/h 37.3% 0in /  0.0mm
03:39 77.7 °F /  25.4 °C 50.2 °F /  10.1 °C 29.9in /  1011.2hPa OSO 3.7mph /  6km/h 6mph /  9.7km/h 38% 0in /  0.0mm
03:44 77.5 °F /  25.3 °C 49.8 °F /  9.9 °C 29.9in /  1011.2hPa Oeste 3.1mph /  5km/h 8.1mph /  13km/h 38% 0in /  0.0mm
03:49 77.5 °F /  25.3 °C 49.8 °F /  9.9 °C 29.9in /  1011.2hPa OSO 3.4mph /  5.4km/h 8mph /  12.9km/h 38% 0in /  0.0mm
03:54 77.4 °F /  25.2 °C 49.8 °F /  9.9 °C 29.9in /  1011.2hPa SO 3.6mph /  5.8km/h 8.1mph /  13km/h 38% 0in /  0.0mm
03:59 77.2 °F /  25.1 °C 50 °F /  10 °C 29.9in /  1011.2hPa SO 4mph /  6.4km/h 8mph /  12.9km/h 38.6% 0in /  0.0mm
04:04 77 °F /  25 °C 50.2 °F /  10.1 °C 29.9in /  1011.2hPa SO 4.3mph /  6.9km/h 7mph /  11.3km/h 39% 0in /  0.0mm
04:09 77 °F /  25 °C 50.2 °F /  10.1 °C 29.9in /  1011.2hPa SO 4.3mph /  6.9km/h 7mph /  11.3km/h 39% 0in /  0.0mm
04:14 77 °F /  25 °C 50.2 °F /  10.1 °C 29.9in /  1011.3hPa SSO 4.3mph /  6.9km/h 7mph /  11.3km/h 39% 0in /  0.0mm
04:19 77 °F /  25 °C 50.2 °F /  10.1 °C 29.9in /  1011.3hPa SSO 4mph /  6.4km/h 6mph /  9.7km/h 39% 0in /  0.0mm
04:24 76.6 °F /  24.8 °C 49.8 °F /  9.9 °C 29.9in /  1011.3hPa SSE 3.6mph /  5.8km/h 6.9mph /  11.1km/h 38.8% 0in /  0.0mm
04:29 76.5 °F /  24.7 °C 49.6 °F /  9.8 °C 29.9in /  1011.3hPa Sur 4mph /  6.4km/h 8.1mph /  13km/h 39% 0in /  0.0mm
04:34 76.5 °F /  24.7 °C 49.8 °F /  9.9 °C 29.9in /  1011.3hPa OSO 4.3mph /  6.9km/h 8mph /  12.9km/h 39.3% 0in /  0.0mm
04:39 76.5 °F /  24.7 °C 49.8 °F /  9.9 °C 29.9in /  1011.3hPa SSO 4mph /  6.4km/h 8.1mph /  13km/h 39% 0in /  0.0mm
04:44 76.6 °F /  24.8 °C 50 °F /  10 °C 29.9in /  1011.5hPa SO 3.6mph /  5.8km/h 8.5mph /  13.7km/h 39.2% 0in /  0.0mm
04:49 76.6 °F /  24.8 °C 49.8 °F /  9.9 °C 29.9in /  1011.5hPa Sur 3.8mph /  6.1km/h 9mph /  14.5km/h 39% 0in /  0.0mm
04:54 76.6 °F /  24.8 °C 50 °F /  10 °C 29.9in /  1011.5hPa Sur 4mph /  6.5km/h 7mph /  11.3km/h 39.3% 0in /  0.0mm
04:59 76.6 °F /  24.8 °C 50.4 °F /  10.2 °C 29.9in /  1011.6hPa SSO 3.8mph /  6.1km/h 7mph /  11.3km/h 40% 0in /  0.0mm
05:04 76.6 °F /  24.8 °C 50.5 °F /  10.3 °C 29.9in /  1011.6hPa SSO 3.6mph /  5.8km/h 6.2mph /  10km/h 40% 0in /  0.0mm
05:09 76.5 °F /  24.7 °C 50.4 °F /  10.2 °C 29.9in /  1011.6hPa SSO 3.6mph /  5.8km/h 6mph /  9.7km/h 40% 0in /  0.0mm
05:14 76.3 °F /  24.6 °C 49.8 °F /  9.9 °C 29.9in /  1011.7hPa SSO 3.6mph /  5.8km/h 8.1mph /  13km/h 39.5% 0in /  0.0mm
05:19 75.9 °F /  24.4 °C 49.1 °F /  9.5 °C 29.9in /  1011.7hPa SSO 3.9mph /  6.3km/h 8.1mph /  13km/h 38.8% 0in /  0.0mm
05:24 75.6 °F /  24.2 °C 49.1 °F /  9.5 °C 29.9in /  1011.7hPa SSO 4.3mph /  6.9km/h 9.2mph /  14.8km/h 39.4% 0in /  0.0mm
05:29 75.6 °F /  24.2 °C 49.5 °F /  9.7 °C 29.9in /  1011.7hPa SSO 5.2mph /  8.3km/h 9.2mph /  14.8km/h 40% 0in /  0.0mm
05:34 75.6 °F /  24.2 °C 50.2 °F /  10.1 °C 29.9in /  1011.7hPa SO 5.9mph /  9.5km/h 10.7mph /  17.2km/h 40.9% 0in /  0.0mm
05:39 75.6 °F /  24.2 °C 51.3 °F /  10.7 °C 29.9in /  1011.7hPa SO 6.5mph /  10.4km/h 11.5mph /  18.5km/h 42.5% 0in /  0.0mm
05:44 75.6 °F /  24.2 °C 51.4 °F /  10.8 °C 29.9in /  1011.8hPa SO 6.9mph /  11.1km/h 12.7mph /  20.4km/h 43% 0in /  0.0mm
05:49 75.6 °F /  24.2 °C 51.6 °F /  10.9 °C 29.9in /  1011.8hPa SO 7.5mph /  12km/h 13mph /  20.9km/h 43.3% 0in /  0.0mm
05:54 75.4 °F /  24.1 °C 52.3 °F /  11.3 °C 29.9in /  1011.8hPa SO 8.1mph /  13km/h 12mph /  19.3km/h 44.7% 0in /  0.0mm
05:59 75.4 °F /  24.1 °C 53.2 °F /  11.8 °C 29.9in /  1012.0hPa OSO 7.7mph /  12.4km/h 12mph /  19.3km/h 46% 0in /  0.0mm
06:04 75.4 °F /  24.1 °C 53.8 °F /  12.1 °C 29.9in /  1012.0hPa SO 7.4mph /  11.9km/h 14mph /  22.5km/h 47% 0in /  0.0mm
06:09 75.4 °F /  24.1 °C 53.8 °F /  12.1 °C 29.9in /  1012.0hPa OSO 7.7mph /  12.4km/h 14mph /  22.5km/h 47% 0in /  0.0mm
06:14 75.4 °F /  24.1 °C 54 °F /  12.2 °C 29.9in /  1012.2hPa OSO 8.1mph /  13km/h 13.5mph /  21.7km/h 47.5% 0in /  0.0mm
06:19 75.2 °F /  24 °C 54.7 °F /  12.6 °C 29.9in /  1012.2hPa OSO 7.8mph /  12.5km/h 14mph /  22.5km/h 48.9% 0in /  0.0mm
06:24 75.2 °F /  24 °C 54.7 °F /  12.6 °C 29.9in /  1012.2hPa OSO 7.4mph /  11.9km/h 10.2mph /  16.4km/h 49.2% 0in /  0.0mm
06:29 75 °F /  23.9 °C 55 °F /  12.8 °C 29.9in /  1012.3hPa OSO 6.8mph /  10.9km/h 13.8mph /  22.2km/h 50% 0in /  0.0mm
06:34 75 °F /  23.9 °C 55 °F /  12.8 °C 29.9in /  1012.3hPa OSO 6.2mph /  10km/h 14mph /  22.5km/h 50% 0in /  0.0mm
06:39 75 °F /  23.9 °C 55.6 °F /  13.1 °C 29.9in /  1012.3hPa OSO 6.5mph /  10.5km/h 11.5mph /  18.5km/h 50.7% 0in /  0.0mm
06:44 75 °F /  23.9 °C 55.8 °F /  13.2 °C 29.9in /  1012.6hPa OSO 6.9mph /  11.1km/h 11.8mph /  19km/h 51% 0in /  0.0mm
06:49 75 °F /  23.9 °C 55.8 °F /  13.2 °C 29.9in /  1012.6hPa OSO 6.6mph /  10.7km/h 12.7mph /  20.4km/h 51% 0in /  0.0mm
06:54 75 °F /  23.9 °C 55.9 °F /  13.3 °C 29.9in /  1012.6hPa OSO 6.4mph /  10.3km/h 13mph /  20.9km/h 51.5% 0in /  0.0mm
06:59 74.8 °F /  23.8 °C 56.1 °F /  13.4 °C 29.9in /  1012.7hPa OSO 6.4mph /  10.3km/h 12mph /  19.3km/h 52% 0in /  0.0mm
07:04 74.8 °F /  23.8 °C 56.5 °F /  13.6 °C 29.9in /  1012.7hPa OSO 6.4mph /  10.3km/h 11.5mph /  18.5km/h 52.8% 0in /  0.0mm
07:09 74.8 °F /  23.8 °C 56.7 °F /  13.7 °C 29.9in /  1012.7hPa OSO 6.3mph /  10.2km/h 15mph /  24.1km/h 53% 0in /  0.0mm
07:14 74.8 °F /  23.8 °C 56.7 °F /  13.7 °C 29.9in /  1012.9hPa OSO 6.2mph /  10km/h 15mph /  24.1km/h 53% 0in /  0.0mm
07:19 74.8 °F /  23.8 °C 56.7 °F /  13.7 °C 29.9in /  1012.9hPa OSO 6.2mph /  10km/h 12.7mph /  20.4km/h 53% 0in /  0.0mm
07:24 75 °F /  23.9 °C 56.7 °F /  13.7 °C 29.9in /  1012.9hPa OSO 6.2mph /  10km/h 13mph /  20.9km/h 53% 0in /  0.0mm
07:29 75 °F /  23.9 °C 56.7 °F /  13.7 °C 29.9in /  1013.1hPa OSO 6.5mph /  10.5km/h 13mph /  20.9km/h 53% 0in /  0.0mm
07:34 75 °F /  23.9 °C 56.7 °F /  13.7 °C 29.9in /  1013.1hPa OSO 6.9mph /  11.1km/h 13mph /  20.9km/h 53% 0in /  0.0mm
07:39 75 °F /  23.9 °C 57 °F /  13.9 °C 29.9in /  1013.1hPa OSO 6.9mph /  11.1km/h 13mph /  20.9km/h 53.6% 0in /  0.0mm
07:44 75 °F /  23.9 °C 57.4 °F /  14.1 °C 29.9in /  1013.1hPa Oeste 6.9mph /  11.1km/h 13.5mph /  21.7km/h 54% 0in /  0.0mm
07:49 75 °F /  23.9 °C 57.2 °F /  14 °C 29.9in /  1013.1hPa Oeste 6.6mph /  10.7km/h 14mph /  22.5km/h 54% 0in /  0.0mm
07:54 75.2 °F /  24 °C 57.4 °F /  14.1 °C 29.9in /  1013.1hPa ONO 6.4mph /  10.3km/h 14mph /  22.5km/h 54% 0in /  0.0mm
07:59 75.4 °F /  24.1 °C 57.6 °F /  14.2 °C 29.9in /  1013.2hPa ONO 5.8mph /  9.3km/h 9.2mph /  14.8km/h 54% 0in /  0.0mm
08:04 75.6 °F /  24.2 °C 57.6 °F /  14.2 °C 29.9in /  1013.2hPa NNO 5.2mph /  8.4km/h 9mph /  14.5km/h 53.7% 0in /  0.0mm
08:09 75.7 °F /  24.3 °C 57.7 °F /  14.3 °C 29.9in /  1013.2hPa NO 4.2mph /  6.8km/h 5mph /  8km/h 53.6% 0in /  0.0mm
08:14 75.9 °F /  24.4 °C 57.6 °F /  14.2 °C 29.9in /  1013.4hPa Oeste 3.1mph /  5km/h 10.2mph /  16.4km/h 53% 0in /  0.0mm
08:19 75.9 °F /  24.4 °C 57.6 °F /  14.2 °C 29.9in /  1013.4hPa Oeste 3.4mph /  5.4km/h 12.7mph /  20.4km/h 53% 0in /  0.0mm
08:24 75.9 °F /  24.4 °C 57.6 °F /  14.2 °C 29.9in /  1013.4hPa Oeste 3.6mph /  5.8km/h 15mph /  24.1km/h 53% 0in /  0.0mm
08:29 75.9 °F /  24.4 °C 57.6 °F /  14.2 °C 29.9in /  1013.6hPa OSO 5.3mph /  8.6km/h 15mph /  24.1km/h 53% 0in /  0.0mm
08:34 76.1 °F /  24.5 °C 57.7 °F /  14.3 °C 29.9in /  1013.6hPa OSO 7.4mph /  11.9km/h 12mph /  19.3km/h 53% 0in /  0.0mm
08:39 76.3 °F /  24.6 °C 57.9 °F /  14.4 °C 29.9in /  1013.6hPa Oeste 6.3mph /  10.1km/h 9.7mph /  15.6km/h 53% 0in /  0.0mm
08:44 76.5 °F /  24.7 °C 57.7 °F /  14.3 °C 29.9in /  1013.7hPa Oeste 5.2mph /  8.4km/h 10mph /  16.1km/h 52.7% 0in /  0.0mm
08:49 76.5 °F /  24.7 °C 57.6 °F /  14.2 °C 29.9in /  1013.7hPa Oeste 5.2mph /  8.4km/h 13mph /  20.9km/h 52% 0in /  0.0mm
08:54 76.6 °F /  24.8 °C 57.7 °F /  14.3 °C 29.9in /  1013.7hPa Oeste 5.2mph /  8.4km/h 13mph /  20.9km/h 52% 0in /  0.0mm
08:59 76.8 °F /  24.9 °C 57.9 °F /  14.4 °C 29.9in /  1013.8hPa Oeste 5.6mph /  9km/h 10.4mph /  16.7km/h 52% 0in /  0.0mm
09:04 77 °F /  25 °C 57.9 °F /  14.4 °C 29.9in /  1013.8hPa ONO 5.9mph /  9.5km/h 10.4mph /  16.7km/h 51.8% 0in /  0.0mm
09:09 77 °F /  25 °C 57.9 °F /  14.4 °C 29.9in /  1013.8hPa ONO 6.4mph /  10.3km/h 13.8mph /  22.2km/h 51.8% 0in /  0.0mm
09:14 77.4 °F /  25.2 °C 57.9 °F /  14.4 °C 29.9in /  1013.9hPa ONO 6.9mph /  11.1km/h 15mph /  24.1km/h 51.3% 0in /  0.0mm
09:19 77.4 °F /  25.2 °C 57.7 °F /  14.3 °C 29.9in /  1013.9hPa ONO 6.9mph /  11.1km/h 15mph /  24.1km/h 51% 0in /  0.0mm
09:24 77.4 °F /  25.2 °C 57.7 °F /  14.3 °C 29.9in /  1013.9hPa Oeste 6.9mph /  11.1km/h 14mph /  22.5km/h 51% 0in /  0.0mm
09:29 77.5 °F /  25.3 °C 57.9 °F /  14.4 °C 29.9in /  1014.1hPa Oeste 7.5mph /  12.1km/h 14mph /  22.5km/h 51% 0in /  0.0mm
09:34 77.7 °F /  25.4 °C 57.7 °F /  14.3 °C 29.9in /  1014.1hPa Oeste 8.1mph /  13km/h 15mph /  24.1km/h 50.1% 0in /  0.0mm
09:39 77.7 °F /  25.4 °C 57.7 °F /  14.3 °C 29.9in /  1014.1hPa ONO 7.8mph /  12.6km/h 15mph /  24.1km/h 50% 0in /  0.0mm
09:44 78.1 °F /  25.6 °C 57.9 °F /  14.4 °C 30in /  1014.3hPa Oeste 7.6mph /  12.2km/h 16.1mph /  25.9km/h 50% 0in /  0.0mm
09:49 77.9 °F /  25.5 °C 57.7 °F /  14.3 °C 30in /  1014.3hPa Oeste 8.1mph /  13.1km/h 16mph /  25.7km/h 50% 0in /  0.0mm
09:54 78.1 °F /  25.6 °C 57.9 °F /  14.4 °C 30in /  1014.3hPa Oeste 8.7mph /  14km/h 13.5mph /  21.7km/h 50% 0in /  0.0mm
09:59 78.3 °F /  25.7 °C 58.1 °F /  14.5 °C 30in /  1014.4hPa ONO 8.1mph /  13km/h 14mph /  22.5km/h 50% 0in /  0.0mm
10:04 78.3 °F /  25.7 °C 57.7 °F /  14.3 °C 30in /  1014.4hPa ONO 7.6mph /  12.2km/h 14mph /  22.5km/h 49.4% 0in /  0.0mm
10:09 78.4 °F /  25.8 °C 57.7 °F /  14.3 °C 30in /  1014.4hPa ONO 7.8mph /  12.5km/h 13mph /  20.9km/h 49% 0in /  0.0mm
10:14 79 °F /  26.1 °C 57.9 °F /  14.4 °C 30in /  1014.5hPa Oeste 8.1mph /  13km/h 13.8mph /  22.2km/h 48.8% 0in /  0.0mm
10:19 79 °F /  26.1 °C 57.6 °F /  14.2 °C 30in /  1014.5hPa Oeste 8.1mph /  13km/h 14mph /  22.5km/h 48% 0in /  0.0mm
10:24 79.2 °F /  26.2 °C 57.9 °F /  14.4 °C 30in /  1014.5hPa ONO 8.1mph /  13km/h 13mph /  20.9km/h 48.4% 0in /  0.0mm
10:29 79.3 °F /  26.3 °C 57.9 °F /  14.4 °C 30in /  1014.6hPa NNO 7.2mph /  11.6km/h 12mph /  19.3km/h 48% 0in /  0.0mm
10:34 79.9 °F /  26.6 °C 58.1 °F /  14.5 °C 30in /  1014.6hPa ONO 6.4mph /  10.3km/h 12mph /  19.3km/h 47.7% 0in /  0.0mm
10:39 80.2 °F /  26.8 °C 58.1 °F /  14.5 °C 30in /  1014.6hPa ONO 5.2mph /  8.4km/h 11.5mph /  18.5km/h 47% 0in /  0.0mm
10:44 80.2 °F /  26.8 °C 58.1 °F /  14.5 °C 30in /  1014.6hPa NNO 4mph /  6.5km/h 12mph /  19.3km/h 47% 0in /  0.0mm
10:49 80.2 °F /  26.8 °C 58.5 °F /  14.7 °C 30in /  1014.5hPa North 4.7mph /  7.5km/h 10.4mph /  16.7km/h 47.5% 0in /  0.0mm
10:54 80.2 °F /  26.8 °C 58.6 °F /  14.8 °C 30in /  1014.5hPa North 5.4mph /  8.7km/h 10.4mph /  16.7km/h 47.7% 0in /  0.0mm
10:59 80.2 °F /  26.8 °C 58.5 °F /  14.7 °C 30in /  1014.6hPa NNE 5.8mph /  9.4km/h 11.5mph /  18.5km/h 47.6% 0in /  0.0mm
11:04 80.4 °F /  26.9 °C 58.6 °F /  14.8 °C 30in /  1014.6hPa NNO 6.2mph /  10km/h 12mph /  19.3km/h 47.4% 0in /  0.0mm
11:09 80.8 °F /  27.1 °C 58.6 °F /  14.8 °C 30in /  1014.6hPa NNE 6mph /  9.7km/h 13.8mph /  22.2km/h 47% 0in /  0.0mm
11:14 80.8 °F /  27.1 °C 58.3 °F /  14.6 °C 30in /  1014.6hPa NNE 5.9mph /  9.5km/h 14mph /  22.5km/h 46.5% 0in /  0.0mm
11:19 80.8 °F /  27.1 °C 58.1 °F /  14.5 °C 30in /  1014.6hPa NNE 6.2mph /  9.9km/h 12mph /  19.3km/h 45.9% 0in /  0.0mm
11:24 81 °F /  27.2 °C 58.3 °F /  14.6 °C 30in /  1014.6hPa NNE 6.4mph /  10.3km/h 11.5mph /  18.5km/h 46% 0in /  0.0mm
11:29 81.3 °F /  27.4 °C 58.5 °F /  14.7 °C 30in /  1014.8hPa NNE 5.8mph /  9.4km/h 12mph /  19.3km/h 45.8% 0in /  0.0mm
11:34 81.7 °F /  27.6 °C 58.3 °F /  14.6 °C 30in /  1014.8hPa NNE 5.2mph /  8.4km/h 14mph /  22.5km/h 45% 0in /  0.0mm
11:39 81.5 °F /  27.5 °C 57.7 °F /  14.3 °C 30in /  1014.8hPa NNO 6mph /  9.7km/h 15mph /  24.1km/h 44.4% 0in /  0.0mm
11:44 81.3 °F /  27.4 °C 58.6 °F /  14.8 °C 30in /  1014.8hPa NNE 6.9mph /  11.1km/h 15.2mph /  24.5km/h 46.1% 0in /  0.0mm
11:49 81.1 °F /  27.3 °C 60.6 °F /  15.9 °C 30in /  1014.8hPa NE 7.5mph /  12km/h 17.3mph /  27.8km/h 49.8% 0in /  0.0mm
11:54 80.8 °F /  27.1 °C 60.4 °F /  15.8 °C 30in /  1014.8hPa NE 8.1mph /  13km/h 17mph /  27.4km/h 50.2% 0in /  0.0mm
11:59 79.7 °F /  26.5 °C 60.4 °F /  15.8 °C 30in /  1015.0hPa NE 9.4mph /  15.2km/h 21.3mph /  34.3km/h 51.9% 0in /  0.0mm
12:04 79.2 °F /  26.2 °C 60.4 °F /  15.8 °C 30in /  1015.0hPa NE 10.7mph /  17.2km/h 21mph /  33.8km/h 53% 0in /  0.0mm
12:09 78.8 °F /  26 °C 60.6 °F /  15.9 °C 30in /  1015.0hPa NNE 10.7mph /  17.2km/h 19mph /  30.6km/h 53.9% 0in /  0.0mm
12:14 78.4 °F /  25.8 °C 60.6 °F /  15.9 °C 30in /  1015.2hPa NE 10.7mph /  17.2km/h 21.3mph /  34.3km/h 54.4% 0in /  0.0mm
12:19 78.4 °F /  25.8 °C 60.8 °F /  16 °C 30in /  1015.2hPa NNE 11mph /  17.7km/h 21mph /  33.8km/h 54.5% 0in /  0.0mm
12:24 78.3 °F /  25.7 °C 60.8 °F /  16 °C 30in /  1015.2hPa NE 11.4mph /  18.4km/h 20mph /  32.2km/h 55% 0in /  0.0mm
12:29 78.3 °F /  25.7 °C 60.8 °F /  16 °C 30in /  1015.2hPa NE 11.3mph /  18.2km/h 22.5mph /  36.2km/h 55.2% 0in /  0.0mm
12:34 77.7 °F /  25.4 °C 60.6 °F /  15.9 °C 30in /  1015.2hPa NE 11.2mph /  18km/h 23mph /  37km/h 55.7% 0in /  0.0mm
12:39 77.4 °F /  25.2 °C 60.4 °F /  15.8 °C 30in /  1015.2hPa NNE 11.9mph /  19.1km/h 23mph /  37km/h 56% 0in /  0.0mm
12:44 76.6 °F /  24.8 °C 60.3 °F /  15.7 °C 30in /  1015.4hPa NE 12.5mph /  20.1km/h 23mph /  37km/h 56.9% 0in /  0.0mm
12:49 76.6 °F /  24.8 °C 60.4 °F /  15.8 °C 30in /  1015.4hPa NE 13.5mph /  21.7km/h 22mph /  35.4km/h 57.2% 0in /  0.0mm
12:54 76.6 °F /  24.8 °C 60.3 °F /  15.7 °C 30in /  1015.4hPa NE 14.5mph /  23.3km/h 25.6mph /  41.2km/h 57.1% 0in /  0.0mm
12:59 76.3 °F /  24.6 °C 60.4 °F /  15.8 °C 30in /  1015.6hPa NE 13.7mph /  22km/h 26mph /  41.8km/h 57.9% 0in /  0.0mm
13:04 76.6 °F /  24.8 °C 60.1 °F /  15.6 °C 30in /  1015.6hPa NE 13mph /  20.9km/h 24mph /  38.6km/h 56.7% 0in /  0.0mm
13:09 76.6 °F /  24.8 °C 60.3 °F /  15.7 °C 30in /  1015.6hPa NE 12.2mph /  19.7km/h 23.7mph /  38.1km/h 57% 0in /  0.0mm
13:14 76.3 °F /  24.6 °C 59.9 °F /  15.5 °C 30in /  1015.6hPa NE 11.4mph /  18.4km/h 26.5mph /  42.6km/h 57% 0in /  0.0mm
13:19 75.7 °F /  24.3 °C 59.7 °F /  15.4 °C 30in /  1015.5hPa NE 12.6mph /  20.3km/h 26mph /  41.8km/h 57.7% 0in /  0.0mm
13:24 75.4 °F /  24.1 °C 59.5 °F /  15.3 °C 30in /  1015.5hPa NE 13.7mph /  22.1km/h 25mph /  40.2km/h 57.9% 0in /  0.0mm
13:29 75.4 °F /  24.1 °C 59.5 °F /  15.3 °C 30in /  1015.6hPa NE 14.2mph /  22.8km/h 24.2mph /  38.9km/h 57.8% 0in /  0.0mm
13:34 75.6 °F /  24.2 °C 59.4 °F /  15.2 °C 30in /  1015.6hPa NE 14.7mph /  23.7km/h 23mph /  37km/h 57.3% 0in /  0.0mm
13:39 75.6 °F /  24.2 °C 59.7 °F /  15.4 °C 30in /  1015.6hPa NE 14.2mph /  22.8km/h 23mph /  37km/h 58% 0in /  0.0mm
13:44 75.6 °F /  24.2 °C 59.9 °F /  15.5 °C 30in /  1015.7hPa NE 13.7mph /  22.1km/h 28.8mph /  46.3km/h 58.2% 0in /  0.0mm
13:49 75.4 °F /  24.1 °C 59.7 °F /  15.4 °C 30in /  1015.7hPa NE 13.9mph /  22.3km/h 29mph /  46.7km/h 58.3% 0in /  0.0mm
13:54 75.4 °F /  24.1 °C 59.7 °F /  15.4 °C 30in /  1015.7hPa NNE 14mph /  22.5km/h 24.2mph /  38.9km/h 58.2% 0in /  0.0mm
13:59 75 °F /  23.9 °C 59.5 °F /  15.3 °C 30in /  1015.8hPa NE 14.3mph /  23km/h 27.6mph /  44.4km/h 58.7% 0in /  0.0mm
14:04 74.7 °F /  23.7 °C 59.4 °F /  15.2 °C 30in /  1015.8hPa NE 14.5mph /  23.3km/h 28mph /  45.1km/h 59% 0in /  0.0mm
14:09 74.7 °F /  23.7 °C 59.4 °F /  15.2 °C 30in /  1015.8hPa NE 14.2mph /  22.9km/h 25mph /  40.2km/h 59% 0in /  0.0mm
14:14 74.7 °F /  23.7 °C 59.4 °F /  15.2 °C 30in /  1015.8hPa NE 14mph /  22.5km/h 24.6mph /  39.6km/h 58.9% 0in /  0.0mm
14:19 75 °F /  23.9 °C 59.2 °F /  15.1 °C 30in /  1015.8hPa NE 13.5mph /  21.7km/h 25.6mph /  41.2km/h 58.1% 0in /  0.0mm
14:24 75 °F /  23.9 °C 59.2 °F /  15.1 °C 30in /  1015.8hPa NE 13mph /  20.9km/h 26mph /  41.8km/h 58% 0in /  0.0mm
14:29 75 °F /  23.9 °C 59.2 °F /  15.1 °C 30in /  1016.0hPa NE 12.7mph /  20.4km/h 23mph /  37km/h 58% 0in /  0.0mm
14:34 74.7 °F /  23.7 °C 59 °F /  15 °C 30in /  1016.0hPa NE 12.3mph /  19.8km/h 24.2mph /  38.9km/h 58.2% 0in /  0.0mm
14:39 74.7 °F /  23.7 °C 59.2 °F /  15.1 °C 30in /  1016.0hPa NE 12.7mph /  20.4km/h 29.4mph /  47.3km/h 58.3% 0in /  0.0mm
14:44 74.5 °F /  23.6 °C 59.2 °F /  15.1 °C 30in /  1016.1hPa NE 13mph /  20.9km/h 30mph /  48.3km/h 59% 0in /  0.0mm
14:49 74.3 °F /  23.5 °C 59.5 °F /  15.3 °C 30in /  1016.1hPa NE 13.4mph /  21.5km/h 25mph /  40.2km/h 60.1% 0in /  0.0mm
14:54 74.5 °F /  23.6 °C 59 °F /  15 °C 30in /  1016.1hPa NE 13.7mph /  22.1km/h 26.8mph /  43.1km/h 58.9% 0in /  0.0mm
14:59 73.9 °F /  23.3 °C 58.8 °F /  14.9 °C 30in /  1016.1hPa NE 13.9mph /  22.3km/h 27mph /  43.5km/h 59.5% 0in /  0.0mm
15:04 73.6 °F /  23.1 °C 58.8 °F /  14.9 °C 30in /  1016.1hPa NE 14mph /  22.5km/h 23.5mph /  37.8km/h 59.9% 0in /  0.0mm
15:09 73.6 °F /  23.1 °C 59 °F /  15 °C 30in /  1016.1hPa NE 13.7mph /  22.1km/h 24.6mph /  39.6km/h 60.5% 0in /  0.0mm
15:14 73.6 °F /  23.1 °C 59 °F /  15 °C 30in /  1016.1hPa NE 13.5mph /  21.7km/h 25mph /  40.2km/h 60.4% 0in /  0.0mm
15:19 73.6 °F /  23.1 °C 59.2 °F /  15.1 °C 30in /  1016.1hPa NE 13.5mph /  21.7km/h 25.3mph /  40.7km/h 61% 0in /  0.0mm
15:24 73.6 °F /  23.1 °C 59.4 °F /  15.2 °C 30in /  1016.1hPa NE 13.5mph /  21.7km/h 25mph /  40.2km/h 61.3% 0in /  0.0mm
15:29 73.2 °F /  22.9 °C 59.4 °F /  15.2 °C 30in /  1016.1hPa NE 13.6mph /  21.9km/h 28.8mph /  46.3km/h 61.8% 0in /  0.0mm
15:34 73 °F /  22.8 °C 59.7 °F /  15.4 °C 30in /  1016.0hPa NE 13.7mph /  22.1km/h 29mph /  46.7km/h 62.9% 0in /  0.0mm
15:39 73 °F /  22.8 °C 59.2 °F /  15.1 °C 30in /  1016.0hPa NE 13.9mph /  22.3km/h 23mph /  37km/h 61.9% 0in /  0.0mm
15:44 73.2 °F /  22.9 °C 59.4 °F /  15.2 °C 30in /  1016.0hPa NNE 14mph /  22.5km/h 23.5mph /  37.8km/h 62% 0in /  0.0mm
15:49 73.2 °F /  22.9 °C 59.7 °F /  15.4 °C 30in /  1016.0hPa NE 13.3mph /  21.4km/h 23mph /  37km/h 62.5% 0in /  0.0mm
15:54 73.6 °F /  23.1 °C 59.7 °F /  15.4 °C 30in /  1016.0hPa NE 12.5mph /  20.1km/h 21mph /  33.8km/h 62.1% 0in /  0.0mm
15:59 73.8 °F /  23.2 °C 59.7 °F /  15.4 °C 30in /  1016.3hPa NE 11.9mph /  19.2km/h 23mph /  37km/h 61.4% 0in /  0.0mm
16:04 73.9 °F /  23.3 °C 59.4 °F /  15.2 °C 30in /  1016.3hPa NE 11.4mph /  18.4km/h 23mph /  37km/h 60.4% 0in /  0.0mm
16:09 73.4 °F /  23 °C 59 °F /  15 °C 30in /  1016.3hPa NNE 11.6mph /  18.7km/h 25.3mph /  40.7km/h 60.5% 0in /  0.0mm
16:14 72.9 °F /  22.7 °C 59 °F /  15 °C 30in /  1016.4hPa NE 11.8mph /  19km/h 25.6mph /  41.2km/h 61.7% 0in /  0.0mm
16:19 72.7 °F /  22.6 °C 59.2 °F /  15.1 °C 30in /  1016.4hPa NE 12.7mph /  20.5km/h 26mph /  41.8km/h 62.7% 0in /  0.0mm
16:24 72.7 °F /  22.6 °C 59.4 °F /  15.2 °C 30in /  1016.4hPa NE 13.7mph /  22.1km/h 23mph /  37km/h 62.9% 0in /  0.0mm
16:29 72.7 °F /  22.6 °C 59.4 °F /  15.2 °C 30in /  1016.5hPa NE 11.8mph /  19km/h 18mph /  29km/h 63% 0in /  0.0mm
16:34 72.7 °F /  22.6 °C 59.4 °F /  15.2 °C 30in /  1016.5hPa NE 10mph /  16.1km/h 20.1mph /  32.3km/h 63.1% 0in /  0.0mm
16:39 72.7 °F /  22.6 °C 59.4 °F /  15.2 °C 30in /  1016.5hPa NE 10.3mph /  16.6km/h 21mph /  33.8km/h 63.2% 0in /  0.0mm
16:44 72.3 °F /  22.4 °C 59 °F /  15 °C 30in /  1016.5hPa NE 10.7mph /  17.2km/h 21mph /  33.8km/h 63% 0in /  0.0mm
16:49 72.3 °F /  22.4 °C 59.5 °F /  15.3 °C 30in /  1016.5hPa NE 10.4mph /  16.8km/h 21mph /  33.8km/h 64% 0in /  0.0mm
16:54 72.1 °F /  22.3 °C 59.4 °F /  15.2 °C 30in /  1016.5hPa NE 10.2mph /  16.4km/h 19.7mph /  31.7km/h 64% 0in /  0.0mm
16:59 71.8 °F /  22.1 °C 59.4 °F /  15.2 °C 30in /  1016.7hPa NE 10.2mph /  16.4km/h 20mph /  32.2km/h 65.1% 0in /  0.0mm
17:04 72 °F /  22.2 °C 59.5 °F /  15.3 °C 30in /  1016.7hPa ENE 10.2mph /  16.4km/h 17.8mph /  28.6km/h 65% 0in /  0.0mm
17:09 72 °F /  22.2 °C 59.4 °F /  15.2 °C 30in /  1016.7hPa NE 9.5mph /  15.3km/h 21.3mph /  34.3km/h 64.7% 0in /  0.0mm
17:14 72 °F /  22.2 °C 59.4 °F /  15.2 °C 30in /  1016.7hPa NNE 8.7mph /  14km/h 21mph /  33.8km/h 64.5% 0in /  0.0mm
17:19 72.1 °F /  22.3 °C 59.5 °F /  15.3 °C 30in /  1016.6hPa NE 9.8mph /  15.7km/h 19mph /  30.6km/h 64.4% 0in /  0.0mm
17:24 72.1 °F /  22.3 °C 59.4 °F /  15.2 °C 30in /  1016.6hPa NE 10.7mph /  17.2km/h 19.7mph /  31.7km/h 64.2% 0in /  0.0mm
17:29 72 °F /  22.2 °C 59.7 °F /  15.4 °C 30in /  1016.6hPa NNE 10.9mph /  17.6km/h 20mph /  32.2km/h 65.3% 0in /  0.0mm
17:34 72.1 °F /  22.3 °C 59.4 °F /  15.2 °C 30in /  1016.6hPa NE 11.2mph /  18km/h 16.1mph /  25.9km/h 64.4% 0in /  0.0mm
17:39 72 °F /  22.2 °C 59.4 °F /  15.2 °C 30in /  1016.6hPa NE 10mph /  16.1km/h 18.4mph /  29.6km/h 64.6% 0in /  0.0mm
17:44 71.8 °F /  22.1 °C 59.4 °F /  15.2 °C 30in /  1016.8hPa NNE 8.7mph /  14km/h 20.7mph /  33.3km/h 65.2% 0in /  0.0mm
17:49 71.4 °F /  21.9 °C 59.2 °F /  15.1 °C 30in /  1016.8hPa NE 9.8mph /  15.7km/h 21mph /  33.8km/h 65.3% 0in /  0.0mm
17:54 71.4 °F /  21.9 °C 59.4 °F /  15.2 °C 30in /  1016.8hPa NE 10.7mph /  17.2km/h 17.3mph /  27.8km/h 66% 0in /  0.0mm
17:59 71.1 °F /  21.7 °C 59.4 °F /  15.2 °C 30in /  1016.8hPa NE 10.4mph /  16.8km/h 17.5mph /  28.2km/h 66.4% 0in /  0.0mm
18:04 71.1 °F /  21.7 °C 59.5 °F /  15.3 °C 30in /  1016.8hPa NE 10.2mph /  16.4km/h 19.6mph /  31.5km/h 67% 0in /  0.0mm
18:09 70.9 °F /  21.6 °C 59.4 °F /  15.2 °C 30in /  1016.8hPa NE 9.4mph /  15.1km/h 20mph /  32.2km/h 67% 0in /  0.0mm
18:14 70.9 °F /  21.6 °C 59.4 °F /  15.2 °C 30in /  1017.0hPa NE 8.5mph /  13.7km/h 18.5mph /  29.8km/h 67% 0in /  0.0mm
18:19 70.5 °F /  21.4 °C 59.2 °F /  15.1 °C 30in /  1017.0hPa NE 8.6mph /  13.8km/h 19mph /  30.6km/h 67.3% 0in /  0.0mm
18:24 70.3 °F /  21.3 °C 59.2 °F /  15.1 °C 30in /  1017.0hPa NE 8.7mph /  14km/h 18.5mph /  29.8km/h 67.7% 0in /  0.0mm
18:29 70.2 °F /  21.2 °C 59.2 °F /  15.1 °C 30in /  1017.0hPa NE 8.7mph /  14km/h 19mph /  30.6km/h 68% 0in /  0.0mm
18:34 70.2 °F /  21.2 °C 59 °F /  15 °C 30in /  1017.0hPa NE 8.7mph /  14km/h 17.5mph /  28.2km/h 67.9% 0in /  0.0mm
18:39 70.2 °F /  21.2 °C 58.6 °F /  14.8 °C 30in /  1017.0hPa NE 8.9mph /  14.4km/h 17.3mph /  27.8km/h 67% 0in /  0.0mm
18:44 70.3 °F /  21.3 °C 59 °F /  15 °C 30in /  1017.0hPa NE 9.2mph /  14.8km/h 17mph /  27.4km/h 67.3% 0in /  0.0mm
18:49 70.5 °F /  21.4 °C 59 °F /  15 °C 30in /  1017.0hPa NE 8.9mph /  14.4km/h 16mph /  25.7km/h 67.2% 0in /  0.0mm
18:54 70.5 °F /  21.4 °C 58.6 °F /  14.8 °C 30in /  1017.0hPa NE 8.7mph /  14km/h 15.2mph /  24.5km/h 66.1% 0in /  0.0mm
18:59 70.3 °F /  21.3 °C 58.6 °F /  14.8 °C 30in /  1017.0hPa NNE 8.9mph /  14.4km/h 16.1mph /  25.9km/h 66.7% 0in /  0.0mm
19:04 70.2 °F /  21.2 °C 58.6 °F /  14.8 °C 30in /  1016.9hPa NE 9.2mph /  14.8km/h 16.1mph /  25.9km/h 67% 0in /  0.0mm
19:09 70.2 °F /  21.2 °C 59 °F /  15 °C 30in /  1016.9hPa NE 8.7mph /  14km/h 16mph /  25.7km/h 67.6% 0in /  0.0mm
19:14 70 °F /  21.1 °C 58.8 °F /  14.9 °C 30in /  1016.9hPa NE 8.1mph /  13km/h 15mph /  24.1km/h 67.5% 0in /  0.0mm
19:19 69.8 °F /  21 °C 58.8 °F /  14.9 °C 30in /  1016.9hPa ENE 8.1mph /  13km/h 15mph /  24.1km/h 68.1% 0in /  0.0mm
19:24 69.6 °F /  20.9 °C 58.6 °F /  14.8 °C 30in /  1016.9hPa NE 8.1mph /  13km/h 15mph /  24.1km/h 68% 0in /  0.0mm
19:29 69.6 °F /  20.9 °C 58.6 °F /  14.8 °C 30in /  1016.9hPa NNE 7.7mph /  12.4km/h 14mph /  22.5km/h 68% 0in /  0.0mm
19:34 69.6 °F /  20.9 °C 58.6 °F /  14.8 °C 30in /  1016.8hPa NE 7.4mph /  11.9km/h 13mph /  20.9km/h 68% 0in /  0.0mm
19:39 69.8 °F /  21 °C 58.5 °F /  14.7 °C 30in /  1016.8hPa NE 7.1mph /  11.5km/h 13.8mph /  22.2km/h 67.4% 0in /  0.0mm
19:44 70 °F /  21.1 °C 58.6 °F /  14.8 °C 30in /  1017.0hPa NE 6.9mph /  11.1km/h 16.1mph /  25.9km/h 67.5% 0in /  0.0mm
19:49 69.6 °F /  20.9 °C 58.6 °F /  14.8 °C 30in /  1017.0hPa NE 7.6mph /  12.3km/h 16mph /  25.7km/h 68% 0in /  0.0mm
19:54 69.6 °F /  20.9 °C 58.6 °F /  14.8 °C 30in /  1017.0hPa NNE 8.5mph /  13.7km/h 16.1mph /  25.9km/h 68% 0in /  0.0mm
19:59 69.4 °F /  20.8 °C 58.6 °F /  14.8 °C 30in /  1017.0hPa ENE 8.6mph /  13.8km/h 16.3mph /  26.2km/h 68.7% 0in /  0.0mm
20:04 69.3 °F /  20.7 °C 58.5 °F /  14.7 °C 30in /  1017.0hPa NE 8.7mph /  14km/h 16.1mph /  25.9km/h 68.3% 0in /  0.0mm
20:09 69.3 °F /  20.7 °C 58.6 °F /  14.8 °C 30in /  1017.0hPa NE 8.2mph /  13.2km/h 16mph /  25.7km/h 69% 0in /  0.0mm
20:14 69.3 °F /  20.7 °C 59 °F /  15 °C 30in /  1017.1hPa NE 7.6mph /  12.2km/h 13mph /  20.9km/h 69.6% 0in /  0.0mm
20:19 69.3 °F /  20.7 °C 59 °F /  15 °C 30in /  1017.1hPa NE 7.5mph /  12.1km/h 13mph /  20.9km/h 69.7% 0in /  0.0mm
20:24 69.1 °F /  20.6 °C 58.6 °F /  14.8 °C 30in /  1017.1hPa NE 7.4mph /  11.9km/h 13mph /  20.9km/h 69% 0in /  0.0mm
20:29 69.1 °F /  20.6 °C 58.5 °F /  14.7 °C 30in /  1017.3hPa NE 7.1mph /  11.5km/h 13mph /  20.9km/h 69% 0in /  0.0mm
20:34 69.1 °F /  20.6 °C 58.5 °F /  14.7 °C 30in /  1017.3hPa NE 6.9mph /  11.1km/h 13mph /  20.9km/h 69% 0in /  0.0mm
20:39 69.1 °F /  20.6 °C 58.5 °F /  14.7 °C 30in /  1017.3hPa NE 6.5mph /  10.5km/h 13mph /  20.9km/h 69% 0in /  0.0mm
20:44 68.7 °F /  20.4 °C 58.5 °F /  14.7 °C 30in /  1017.3hPa NE 6.2mph /  10km/h 13mph /  20.9km/h 69.5% 0in /  0.0mm
20:49 68.5 °F /  20.3 °C 58.1 °F /  14.5 °C 30in /  1017.3hPa NNE 6.8mph /  11km/h 13mph /  20.9km/h 69% 0in /  0.0mm
20:54 68.5 °F /  20.3 °C 57.9 °F /  14.4 °C 30in /  1017.3hPa NE 7.6mph /  12.2km/h 13mph /  20.9km/h 69% 0in /  0.0mm
20:59 68.5 °F /  20.3 °C 57.9 °F /  14.4 °C 30in /  1017.4hPa NE 6.9mph /  11.1km/h 10mph /  16.1km/h 69% 0in /  0.0mm
21:04 68.4 °F /  20.2 °C 58.3 °F /  14.6 °C 30in /  1017.4hPa NE 6.2mph /  10km/h 10.4mph /  16.7km/h 70% 0in /  0.0mm
21:09 68.2 °F /  20.1 °C 58.1 °F /  14.5 °C 30in /  1017.4hPa NE 6.2mph /  10km/h 10.7mph /  17.2km/h 70% 0in /  0.0mm
21:14 68.2 °F /  20.1 °C 57.9 °F /  14.4 °C 30in /  1017.4hPa NE 6.2mph /  10km/h 11mph /  17.7km/h 70% 0in /  0.0mm
21:19 68 °F /  20 °C 58.1 °F /  14.5 °C 30in /  1017.4hPa ENE 5.4mph /  8.7km/h 10.4mph /  16.7km/h 70.8% 0in /  0.0mm
21:24 67.8 °F /  19.9 °C 58.1 °F /  14.5 °C 30in /  1017.4hPa NE 4.7mph /  7.6km/h 10mph /  16.1km/h 71% 0in /  0.0mm
21:29 67.8 °F /  19.9 °C 58.1 °F /  14.5 °C 30.1in /  1017.6hPa NE 4.3mph /  7km/h 9.7mph /  15.6km/h 71% 0in /  0.0mm
21:34 67.6 °F /  19.8 °C 58.1 °F /  14.5 °C 30.1in /  1017.6hPa NE 4mph /  6.5km/h 10mph /  16.1km/h 71.5% 0in /  0.0mm
21:39 67.6 °F /  19.8 °C 58.1 °F /  14.5 °C 30.1in /  1017.6hPa NE 4.3mph /  7km/h 9.7mph /  15.6km/h 71.8% 0in /  0.0mm
21:44 67.5 °F /  19.7 °C 58.1 °F /  14.5 °C 30.1in /  1017.8hPa ENE 4.7mph /  7.6km/h 10mph /  16.1km/h 72% 0in /  0.0mm
21:49 67.5 °F /  19.7 °C 58.3 °F /  14.6 °C 30.1in /  1017.8hPa ENE 4.5mph /  7.3km/h 9mph /  14.5km/h 72.4% 0in /  0.0mm
21:54 67.3 °F /  19.6 °C 58.3 °F /  14.6 °C 30.1in /  1017.8hPa NE 4.3mph /  6.9km/h 7.4mph /  11.9km/h 73% 0in /  0.0mm
21:59 67.1 °F /  19.5 °C 58.1 °F /  14.5 °C 30.1in /  1017.9hPa NE 4.3mph /  6.9km/h 9.7mph /  15.6km/h 73% 0in /  0.0mm
22:04 66.9 °F /  19.4 °C 58.3 °F /  14.6 °C 30.1in /  1017.9hPa ENE 4.3mph /  6.9km/h 10mph /  16.1km/h 73.9% 0in /  0.0mm
22:09 66.9 °F /  19.4 °C 58.5 °F /  14.7 °C 30.1in /  1017.9hPa ENE 4.3mph /  6.9km/h 9mph /  14.5km/h 74% 0in /  0.0mm
22:14 66.9 °F /  19.4 °C 58.3 °F /  14.6 °C 30.1in /  1018.1hPa ENE 4.3mph /  6.9km/h 8.1mph /  13km/h 74% 0in /  0.0mm
22:19 66.7 °F /  19.3 °C 58.3 °F /  14.6 °C 30.1in /  1018.1hPa NE 4mph /  6.4km/h 8mph /  12.9km/h 74.1% 0in /  0.0mm
22:24 66.6 °F /  19.2 °C 58.5 °F /  14.7 °C 30.1in /  1018.1hPa NE 3.6mph /  5.8km/h 7.4mph /  11.9km/h 75% 0in /  0.0mm
22:29 66.6 °F /  19.2 °C 58.5 °F /  14.7 °C 30.1in /  1018.3hPa NE 3.8mph /  6.1km/h 7mph /  11.3km/h 75% 0in /  0.0mm
22:34 66.6 °F /  19.2 °C 58.5 °F /  14.7 °C 30.1in /  1018.3hPa NNE 4mph /  6.5km/h 6.9mph /  11.1km/h 75% 0in /  0.0mm
22:39 66.4 °F /  19.1 °C 58.5 °F /  14.7 °C 30.1in /  1018.3hPa NE 3.8mph /  6.1km/h 7mph /  11.3km/h 75.6% 0in /  0.0mm
22:44 66.4 °F /  19.1 °C 58.5 °F /  14.7 °C 30.1in /  1018.5hPa NNE 3.6mph /  5.8km/h 8.1mph /  13km/h 76% 0in /  0.0mm
22:49 66.2 °F /  19 °C 58.5 °F /  14.7 °C 30.1in /  1018.5hPa NE 3.9mph /  6.3km/h 8mph /  12.9km/h 76.5% 0in /  0.0mm
22:54 66 °F /  18.9 °C 58.6 °F /  14.8 °C 30.1in /  1018.5hPa NE 4.3mph /  6.9km/h 7mph /  11.3km/h 77% 0in /  0.0mm
22:59 66 °F /  18.9 °C 58.6 °F /  14.8 °C 30.1in /  1018.7hPa NNE 4.2mph /  6.7km/h 7.6mph /  12.2km/h 77% 0in /  0.0mm
23:04 65.8 °F /  18.8 °C 58.8 °F /  14.9 °C 30.1in /  1018.7hPa NE 4mph /  6.5km/h 8.1mph /  13km/h 78% 0in /  0.0mm
23:09 65.8 °F /  18.8 °C 58.8 °F /  14.9 °C 30.1in /  1018.7hPa NE 4.3mph /  7km/h 8.1mph /  13km/h 78% 0in /  0.0mm
23:14 65.7 °F /  18.7 °C 58.6 °F /  14.8 °C 30.1in /  1019.1hPa NNE 4.7mph /  7.6km/h 9.2mph /  14.8km/h 78.2% 0in /  0.0mm
23:19 65.7 °F /  18.7 °C 59 °F /  15 °C 30.1in /  1019.1hPa NE 5mph /  8km/h 9.2mph /  14.8km/h 79% 0in /  0.0mm
23:24 65.5 °F /  18.6 °C 58.8 °F /  14.9 °C 30.1in /  1019.1hPa NNE 5.2mph /  8.4km/h 8.1mph /  13km/h 79% 0in /  0.0mm
23:29 65.3 °F /  18.5 °C 58.6 °F /  14.8 °C 30.1in /  1019.3hPa NNE 5.2mph /  8.4km/h 8.1mph /  13km/h 79% 0in /  0.0mm
23:34 65.1 °F /  18.4 °C 58.8 °F /  14.9 °C 30.1in /  1019.3hPa NNE 5.2mph /  8.4km/h 8.1mph /  13km/h 79.8% 0in /  0.0mm
23:39 65.1 °F /  18.4 °C 58.8 °F /  14.9 °C 30.1in /  1019.3hPa NNE 5.3mph /  8.5km/h 8mph /  12.9km/h 80% 0in /  0.0mm
23:44 65.1 °F /  18.4 °C 58.8 °F /  14.9 °C 30.1in /  1019.3hPa NNE 5.4mph /  8.7km/h 8.1mph /  13km/h 80% 0in /  0.0mm
23:49 64.9 °F /  18.3 °C 58.6 °F /  14.8 °C 30.1in /  1019.3hPa NNE 5.3mph /  8.5km/h 8.1mph /  13km/h 80% 0in /  0.0mm
23:54 64.9 °F /  18.3 °C 58.6 °F /  14.8 °C 30.1in /  1019.3hPa NE 5.2mph /  8.4km/h 8mph /  12.9km/h 80% 0in /  0.0mm
23:59 64.9 °F /  18.3 °C 58.8 °F /  14.9 °C 30.1in /  1019.4hPa NNE 4.7mph /  7.5km/h 7mph /  11.3km/h 81% 0in /  0.0mm
Murcia-Puente Tocinos, España
Compliments of Weather Underground - 3 mb

La estación de MeteoMurcia.com, publica sus datos en los siguientes proyectos:

Weather Underground PWS IMURCIAP2 Meteoclimatic www.awekas.at

W3Counter
Web Analytics